Time;durP1;ratioP1;P1;durP2;ratioP2;P2;SDS_P1;SDS_P2;PMS_P1;PMS_P2;Temp;Humidity;BMP_temperature;BMP_pressure;BME280_temperature;BME280_humidity;BME280_pressure;Samples;Min_cycle;Max_cycle;Signal;HPM_P1;HPM_P2
2023/01/10 00:03:38;;;;;;;12.97;6.47;;;7.40;99.90;;;5.22;100.00;98765.28;10464531;28;20061;-82
2023/01/10 00:08:41;;;;;;;13.00;6.30;;;7.40;99.90;;;5.22;100.00;98769.72;10460855;28;20092;-82
2023/01/10 00:13:44;;;;;;;11.57;5.73;;;7.40;99.90;;;5.21;100.00;98773.31;10428957;28;20522;-83
2023/01/10 00:18:47;;;;;;;11.50;6.07;;;7.40;99.90;;;5.21;100.00;98763.59;10443719;28;20061;-82
2023/01/10 00:23:50;;;;;;;13.03;5.90;;;7.40;99.90;;;5.20;100.00;98761.16;10449978;28;20140;-82
2023/01/10 00:28:53;;;;;;;13.20;6.17;;;7.40;99.90;;;5.22;100.00;98764.47;10448509;28;20057;-83
2023/01/10 00:33:56;;;;;;;13.43;6.67;;;7.40;99.90;;;5.21;100.00;98762.78;10443778;28;20507;-83
2023/01/10 00:38:59;;;;;;;12.27;6.50;;;7.40;99.90;;;5.24;100.00;98767.72;10470837;28;20057;-82
2023/01/10 00:44:02;;;;;;;11.57;5.73;;;7.40;99.90;;;5.21;100.00;98749.63;10403453;28;20065;-82
2023/01/10 00:49:07;;;;;;;11.87;5.33;;;7.40;99.90;;;5.22;100.00;98757.38;10469983;28;20065;-82
2023/01/10 00:54:12;;;;;;;11.50;5.30;;;7.40;99.90;;;5.21;100.00;98755.72;10419324;28;20058;-83
2023/01/10 00:59:16;;;;;;;10.40;5.20;;;7.40;99.90;;;5.19;100.00;98756.88;10459302;28;20116;-82
2023/01/10 01:04:19;;;;;;;10.20;4.80;;;7.40;99.90;;;5.18;100.00;98755.25;10428596;28;20071;-81
2023/01/10 01:09:21;;;;;;;6.40;3.80;;;7.40;99.90;;;5.18;100.00;98763.13;10422841;28;20562;-81
2023/01/10 01:14:25;;;;;;;7.70;4.37;;;7.30;99.90;;;5.15;100.00;98763.47;10417990;28;20062;-80
2023/01/10 01:19:28;;;;;;;5.93;3.80;;;7.30;99.90;;;5.16;100.00;98752.78;10460228;28;20058;-81
2023/01/10 01:24:32;;;;;;;6.53;3.40;;;7.30;99.90;;;5.15;100.00;98751.13;10467507;28;20163;-81
2023/01/10 01:29:35;;;;;;;5.53;3.40;;;7.30;99.90;;;5.15;100.00;98751.13;10446859;28;20422;-81
2023/01/10 01:34:45;;;;;;;6.17;3.07;;;7.30;99.90;;;5.14;100.00;98733.69;10474432;28;20064;-80
2023/01/10 01:39:48;;;;;;;6.70;2.83;;;7.30;99.90;;;5.13;100.00;98737.31;10458270;28;20062;-80
2023/01/10 01:45:21;;;;;;;5.47;2.40;;;7.30;99.90;;;5.13;100.00;98752.28;10441862;28;20065;-80
2023/01/10 01:50:31;;;;;;;4.03;2.10;;;7.30;99.90;;;5.12;100.00;98748.00;10463834;28;20064;-81
2023/01/10 01:55:36;;;;;;;2.10;1.30;;;7.30;99.90;;;5.10;100.00;98741.09;10443980;28;20063;-82
2023/01/10 02:00:39;;;;;;;2.03;0.97;;;7.30;99.90;;;5.09;100.00;98744.72;10417603;28;20057;-81
2023/01/10 02:05:44;;;;;;;1.40;0.90;;;7.30;99.90;;;5.08;100.00;98748.34;10468071;28;20061;-82
2023/01/10 02:11:09;;;;;;;1.77;1.10;;;7.20;99.90;;;5.08;100.00;98750.16;10412432;28;20067;-82
2023/01/10 02:16:13;;;;;;;1.30;0.70;;;7.20;99.90;;;5.08;100.00;98756.22;10449347;28;20065;-81
2023/01/10 02:22:00;;;;;;;0.97;0.67;;;7.30;99.90;;;5.08;100.00;98764.13;10417382;28;20057;-81
2023/01/10 02:27:22;;;;;;;1.23;0.83;;;7.30;99.90;;;5.07;100.00;98762.50;10483418;28;20057;-81
2023/01/10 02:32:57;;;;;;;0.90;0.70;;;7.30;99.90;;;5.09;100.00;98764.94;10444146;28;20061;-81
2023/01/10 02:39:09;;;;;;;1.67;0.80;;;7.30;99.90;;;5.10;100.00;98775.34;10449503;28;20266;-82
2023/01/10 02:44:23;;;;;;;1.10;0.67;;;7.30;99.90;;;5.10;100.00;98767.44;10442870;28;20152;-81
2023/01/10 02:49:26;;;;;;;2.90;0.83;;;7.30;99.90;;;5.09;100.00;98763.13;10455119;28;20442;-81
2023/01/10 02:54:30;;;;;;;2.03;1.10;;;7.30;99.90;;;5.06;100.00;98760.03;10414944;28;20065;-82
2023/01/10 02:59:50;;;;;;;1.60;0.93;;;7.30;99.90;;;5.08;100.00;98768.56;10486483;28;20061;-82
2023/01/10 03:05:34;;;;;;;1.80;1.00;;;7.30;99.90;;;5.07;100.00;98762.50;10438319;28;20085;-81
2023/01/10 03:10:52;;;;;;;1.03;0.77;;;7.30;99.90;;;5.08;100.00;98774.66;10471405;28;20085;-81
2023/01/10 03:15:56;;;;;;;1.10;0.60;;;7.30;99.90;;;5.09;100.00;98778.13;10456023;28;20061;-81
2023/01/10 03:21:03;;;;;;;1.00;0.63;;;7.30;99.90;;;5.08;100.00;98787.84;10432856;28;20088;-81
2023/01/10 03:26:09;;;;;;;1.53;1.00;;;7.30;99.90;;;5.07;100.00;98788.00;10456986;28;20058;-81
2023/01/10 03:31:46;;;;;;;2.97;1.37;;;7.30;99.90;;;5.09;100.00;98791.28;10443242;28;20065;-81
2023/01/10 03:37:00;;;;;;;3.27;2.00;;;7.30;99.90;;;5.09;100.00;98797.38;10439774;28;20053;-81
2023/01/10 03:48:19;;;;;;;5.37;2.57;;;7.30;99.90;;;5.12;100.00;98787.50;10399537;28;20474;-81
2023/01/10 03:53:22;;;;;;;6.27;3.00;;;7.30;99.90;;;5.15;100.00;98797.69;10448436;28;20054;-82
2023/01/10 03:58:28;;;;;;;5.00;2.73;;;7.30;99.90;;;5.18;100.00;98805.28;10442789;28;20128;-82
2023/01/10 04:03:31;;;;;;;5.87;2.90;;;7.40;99.90;;;5.18;100.00;98802.66;10436152;28;20141;-81
2023/01/10 04:08:34;;;;;;;5.60;2.80;;;7.40;99.90;;;5.22;100.00;98807.41;10428849;28;20059;-81
2023/01/10 04:13:40;;;;;;;5.13;2.47;;;7.40;99.90;;;5.24;100.00;98815.13;10442534;28;20061;-81
2023/01/10 04:18:43;;;;;;;4.23;2.00;;;7.40;99.90;;;5.24;100.00;98823.03;10463060;28;20061;-81
2023/01/10 04:23:46;;;;;;;2.40;1.57;;;7.50;99.90;;;5.23;100.00;98816.13;10445736;28;20195;-81
2023/01/10 04:28:49;;;;;;;2.63;1.60;;;7.50;99.90;;;5.25;100.00;98808.88;10435374;28;20483;-81
2023/01/10 04:33:52;;;;;;;2.63;1.20;;;7.40;99.90;;;5.25;100.00;98812.34;10464389;28;20061;-81
2023/01/10 04:38:55;;;;;;;1.83;1.00;;;7.40;99.90;;;5.24;100.00;98802.78;10443503;28;20061;-81
2023/01/10 04:43:58;;;;;;;2.03;1.00;;;7.40;99.90;;;5.21;100.00;98811.00;10443177;28;20192;-81
2023/01/10 04:49:01;;;;;;;1.37;1.00;;;7.40;99.90;;;5.21;100.00;98811.00;10437352;28;20061;-81
2023/01/10 04:54:04;;;;;;;1.80;0.90;;;7.40;99.90;;;5.22;100.00;98838.19;10458865;28;20141;-81
2023/01/10 04:59:09;;;;;;;1.47;0.90;;;7.40;99.90;;;5.19;100.00;98839.34;10487569;28;20084;-82
2023/01/10 05:04:13;;;;;;;1.43;0.70;;;7.40;99.90;;;5.18;100.00;98836.88;10439677;28;20061;-82
2023/01/10 05:09:16;;;;;;;0.90;0.63;;;7.40;99.90;;;5.19;100.00;98851.69;10423886;28;20061;-82
2023/01/10 05:14:19;;;;;;;0.80;0.50;;;7.30;99.90;;;5.15;100.00;98874.06;10422079;28;20062;-83
2023/01/10 05:19:22;;;;;;;1.63;0.60;;;7.30;99.90;;;5.11;100.00;98870.94;10423663;28;20148;-82
2023/01/10 05:24:25;;;;;;;2.33;0.67;;;7.30;99.90;;;5.06;100.00;98881.97;10444657;28;20069;-83
2023/01/10 05:29:28;;;;;;;1.30;0.73;;;7.20;99.90;;;5.05;100.00;98890.03;10424407;28;20530;-83
2023/01/10 05:34:30;;;;;;;1.67;0.50;;;7.20;99.90;;;5.03;100.00;98898.09;10471281;28;20148;-83
2023/01/10 05:39:33;;;;;;;1.07;0.60;;;7.20;99.90;;;5.03;100.00;98903.34;10442322;28;20061;-84
2023/01/10 05:44:36;;;;;;;1.37;0.80;;;7.20;99.90;;;5.03;100.00;98898.09;10489417;28;20061;-84
2023/01/10 05:49:39;;;;;;;0.97;0.67;;;7.20;99.90;;;5.07;100.00;98904.69;10429902;28;20057;-83
2023/01/10 05:54:43;;;;;;;2.33;1.10;;;7.20;99.90;;;5.06;100.00;98897.78;10420374;28;20067;-88
2023/01/10 05:59:46;;;;;;;3.63;0.50;;;7.20;99.90;;;5.04;100.00;98907.66;10426330;28;20434;-89
2023/01/10 06:04:50;;;;;;;2.43;0.30;;;7.20;99.90;;;4.95;100.00;98911.25;10422335;28;20065;-85
2023/01/10 06:09:53;;;;;;;0.10;0.10;;;7.10;99.90;;;4.83;100.00;98925.72;10439931;28;20410;-82
2023/01/10 06:14:56;;;;;;;0.90;0.40;;;7.00;99.90;;;4.73;100.00;98940.81;10456059;28;20152;-81
2023/01/10 06:20:00;;;;;;;0.93;0.40;;;6.90;99.90;;;4.63;100.00;98938.34;10454377;28;20426;-81
2023/01/10 06:25:03;;;;;;;1.00;0.30;;;6.80;99.90;;;4.54;100.00;98948.00;10425606;28;20093;-82
2023/01/10 06:30:08;;;;;;;0.77;0.40;;;6.70;99.90;;;4.51;100.00;98974.66;10439080;28;20064;-82
2023/01/10 06:35:11;;;;;;;0.63;0.40;;;6.70;99.90;;;4.47;100.00;98980.38;10419322;28;20149;-82
2023/01/10 06:40:14;;;;;;;8.50;0.70;;;6.60;99.90;;;4.43;100.00;98995.66;10442267;28;20121;-82
2023/01/10 06:45:17;;;;;;;1.33;0.60;;;6.60;99.90;;;4.40;100.00;98990.72;10426967;28;20061;-82
2023/01/10 06:50:21;;;;;;;1.03;0.30;;;6.50;99.90;;;4.37;100.00;98995.47;10476993;28;20054;-82
2023/01/10 06:55:25;;;;;;;0.57;0.30;;;6.50;99.90;;;4.36;100.00;99001.69;10449290;28;20400;-82
2023/01/10 07:00:30;;;;;;;1.17;0.63;;;6.50;99.90;;;4.35;100.00;99019.28;10482556;28;20084;-82
2023/01/10 07:05:32;;;;;;;1.70;0.80;;;6.50;99.90;;;4.33;100.00;99021.25;10428793;28;20093;-80
2023/01/10 07:10:35;;;;;;;1.23;0.80;;;6.50;99.90;;;4.33;100.00;99030.97;10447771;28;20457;-81
2023/01/10 07:15:38;;;;;;;1.20;0.70;;;6.40;99.90;;;4.26;100.00;99036.84;10463229;28;20058;-81
2023/01/10 07:20:41;;;;;;;2.20;1.30;;;6.40;99.90;;;4.27;100.00;99056.91;10482750;28;20537;-81
2023/01/10 07:25:44;;;;;;;1.10;0.70;;;6.40;99.90;;;4.26;100.00;99068.41;10478364;28;20066;-81
2023/01/10 07:30:47;;;;;;;2.63;1.40;;;6.40;99.90;;;4.24;100.00;99070.34;10461372;28;20152;-81
2023/01/10 07:35:50;;;;;;;1.43;1.07;;;6.40;99.90;;;4.21;100.00;99075.94;10469198;28;20119;-81
2023/01/10 07:41:02;;;;;;;2.40;1.10;;;6.30;99.90;;;4.17;100.00;99090.34;10479329;28;20093;-81
2023/01/10 07:46:10;;;;;;;2.20;1.30;;;6.30;99.90;;;4.13;100.00;99099.50;10463055;28;20066;-81
2023/01/10 07:51:14;;;;;;;2.30;1.00;;;6.30;99.90;;;4.14;100.00;99116.97;10392130;28;20065;-81
2023/01/10 07:56:17;;;;;;;3.27;1.00;;;6.30;99.90;;;4.12;100.00;99123.34;10455090;28;20503;-81
2023/01/10 08:01:20;;;;;;;1.57;0.87;;;6.20;99.90;;;4.11;100.00;99143.56;10463466;28;20088;-81
2023/01/10 08:06:23;;;;;;;1.57;0.87;;;6.20;99.90;;;4.11;100.00;99161.13;10462156;28;20445;-81
2023/01/10 08:11:27;;;;;;;1.57;0.77;;;6.30;99.90;;;4.11;100.00;99163.75;10476666;28;20068;-81
2023/01/10 08:16:30;;;;;;;2.03;1.00;;;6.20;99.90;;;4.09;100.00;99184.94;10427702;28;20064;-82
2023/01/10 08:21:33;;;;;;;2.10;1.30;;;6.20;99.90;;;4.07;100.00;99199.22;10440621;28;20069;-82
2023/01/10 08:26:36;;;;;;;2.07;0.90;;;6.20;99.90;;;4.03;100.00;99211.84;10477142;28;20066;-81
2023/01/10 08:31:40;;;;;;;1.40;0.80;;;6.20;99.90;;;3.98;100.00;99229.88;10459018;28;20061;-81
2023/01/10 08:36:43;;;;;;;2.13;1.13;;;6.10;99.90;;;3.96;100.00;99235.28;10457962;28;20061;-81
2023/01/10 08:41:48;;;;;;;3.67;1.00;;;6.10;99.90;;;3.94;100.00;99250.34;10461465;28;20482;-81
2023/01/10 08:46:51;;;;;;;1.27;0.73;;;6.10;99.90;;;3.92;100.00;99257.56;10445290;28;20427;-81
2023/01/10 08:51:54;;;;;;;1.67;0.70;;;6.00;99.90;;;3.91;100.00;99263.81;10428577;28;20057;-82
2023/01/10 08:56:58;;;;;;;2.17;0.70;;;6.00;99.90;;;3.91;100.00;99274.31;10428328;28;20057;-81
2023/01/10 09:02:03;;;;;;;5.23;1.87;;;6.00;99.90;;;3.90;100.00;99292.84;10461040;28;20140;-81
2023/01/10 09:07:07;;;;;;;8.13;3.10;;;6.00;99.90;;;3.85;100.00;99308.25;10476097;28;20054;-81
2023/01/10 09:17:34;;;;;;;1.50;0.67;;;5.90;99.90;;;3.79;100.00;99343.00;10447486;28;20061;-81
2023/01/10 09:22:38;;;;;;;1.03;0.50;;;5.90;99.90;;;3.76;100.00;99349.34;10427752;28;20065;-81
2023/01/10 09:27:42;;;;;;;2.60;1.43;;;5.90;99.90;;;3.71;100.00;99369.97;10427727;28;20065;-81
2023/01/10 09:32:50;;;;;;;3.00;1.40;;;5.90;99.90;;;3.69;100.00;99379.81;10427883;28;20115;-81
2023/01/10 09:37:57;;;;;;;1.90;0.83;;;5.80;99.90;;;3.67;100.00;99377.34;10401496;28;20065;-81
2023/01/10 09:43:30;;;;;;;1.93;0.93;;;5.80;99.90;;;3.63;100.00;99380.41;10423260;28;20515;-81
2023/01/10 09:48:47;;;;;;;2.40;0.90;;;5.70;99.90;;;3.59;100.00;99394.78;10429317;28;20430;-81
2023/01/10 09:53:58;;;;;;;1.10;0.60;;;5.70;99.90;;;3.53;100.00;99400.59;10459514;28;20526;-81
2023/01/10 09:59:22;;;;;;;1.70;0.80;;;5.70;99.90;;;3.52;100.00;99409.47;10477776;28;20140;-81
2023/01/10 10:04:39;;;;;;;3.65;1.70;;;5.70;99.90;;;3.50;100.00;99417.50;10421453;28;20053;-81
2023/01/10 10:09:42;;;;;;;1.33;0.70;;;5.60;99.90;;;3.44;100.00;99426.75;10418091;28;20062;-81
2023/01/10 10:15:21;;;;;;;0.30;0.20;;;5.50;99.90;;;3.40;100.00;99425.38;10419736;28;20140;-79
2023/01/10 10:20:50;;;;;;;0.87;0.40;;;5.50;99.90;;;3.36;100.00;99429.28;10458723;28;20423;-80
2023/01/10 10:26:19;;;;;;;2.70;0.70;;;5.50;99.90;;;3.29;100.00;99422.06;10485800;28;20057;-80
2023/01/10 10:32:16;;;;;;;0.73;0.40;;;5.40;99.90;;;3.29;100.00;99437.81;10442755;28;20144;-80
2023/01/10 10:37:31;;;;;;;1.23;0.60;;;5.40;99.90;;;3.30;100.00;99431.59;10418005;28;20057;-80
2023/01/10 10:42:42;;;;;;;4.67;1.33;;;5.40;99.90;;;3.34;100.00;99452.19;10441824;28;20066;-80
2023/01/10 10:47:56;;;;;;;5.63;1.90;;;5.50;99.90;;;3.37;100.00;99454.56;10426585;28;20062;-80
2023/01/10 10:53:02;;;;;;;2.93;1.20;;;5.50;99.90;;;3.42;100.00;99462.84;10443120;28;20062;-80
2023/01/10 10:58:09;;;;;;;2.23;0.70;;;5.60;99.90;;;3.44;100.00;99471.41;10441666;28;20139;-80
2023/01/10 11:03:26;;;;;;;1.17;0.50;;;5.60;99.90;;;3.46;100.00;99474.72;10436199;28;20065;-81
2023/01/10 11:08:30;;;;;;;1.03;0.63;;;5.60;99.90;;;3.51;100.00;99486.63;10459656;28;20061;-81
2023/01/10 11:13:33;;;;;;;1.80;0.70;;;5.70;99.90;;;3.52;100.00;99498.78;10470923;28;20096;-81
2023/01/10 11:18:37;;;;;;;2.13;0.60;;;5.70;99.90;;;3.55;100.00;99511.66;10430576;28;20062;-81
2023/01/10 11:23:52;;;;;;;1.57;0.60;;;5.70;99.90;;;3.55;100.00;99516.91;10442492;28;20080;-80
2023/01/10 11:29:55;;;;;;;2.07;0.90;;;5.70;99.90;;;3.58;100.00;99527.09;10442382;28;20069;-80
2023/01/10 11:35:08;;;;;;;1.52;0.75;;;5.70;99.90;;;3.62;100.00;99536.38;10462415;28;20116;-80
2023/01/10 11:40:22;;;;;;;1.60;1.00;;;5.80;99.90;;;3.65;100.00;99541.34;10446366;28;20057;-79
2023/01/10 11:45:33;;;;;;;1.20;0.40;;;5.80;99.90;;;3.67;100.00;99550.75;10481295;28;20065;-80
2023/01/10 11:50:47;;;;;;;1.57;0.53;;;5.80;99.90;;;3.69;100.00;99542.72;10493546;28;20062;-80
2023/01/10 11:55:51;;;;;;;1.57;0.60;;;5.90;99.90;;;3.73;100.00;99546.75;10462572;28;20068;-79
2023/01/10 12:00:54;;;;;;;1.10;0.67;;;5.90;99.90;;;3.75;100.00;99550.06;10496107;28;20108;-79
2023/01/10 12:06:08;;;;;;;1.80;0.80;;;5.90;99.90;;;3.75;100.00;99552.69;10495053;28;20092;-79
2023/01/10 12:11:28;;;;;;;1.45;0.68;;;5.90;99.90;;;3.79;100.00;99558.50;10445392;28;20065;-80
2023/01/10 12:16:33;;;;;;;1.87;0.83;;;6.00;99.90;;;3.80;100.00;99566.22;10431768;28;20068;-79
2023/01/10 12:21:44;;;;;;;1.70;0.83;;;5.90;99.90;;;3.81;100.00;99573.16;10430609;28;20066;-80
2023/01/10 12:26:49;;;;;;;3.37;1.20;;;6.00;99.90;;;3.82;100.00;99580.06;10439986;28;20109;-80
2023/01/10 12:31:55;;;;;;;3.20;1.73;;;6.00;99.90;;;3.85;100.00;99585.06;10411077;28;20108;-80
2023/01/10 12:37:19;;;;;;;3.40;1.70;;;6.00;99.90;;;3.86;100.00;99593.75;10446321;28;20085;-79
2023/01/10 12:48:41;;;;;;;2.80;1.20;;;6.00;99.90;;;3.89;100.00;99607.44;10483472;28;20061;-80
2023/01/10 12:54:14;;;;;;;2.60;1.03;;;6.00;99.90;;;3.90;100.00;99631.91;10424734;28;20541;-80
2023/01/10 12:59:37;;;;;;;;;;;6.00;99.90;;;3.88;100.00;99629.44;10431298;28;20064;-80
2023/01/10 13:04:45;;;;;;;1.73;1.02;;;6.00;99.90;;;3.84;100.00;99638.59;10475963;28;19929;-80
2023/01/10 13:09:50;;;;;;;2.03;0.87;;;6.00;99.90;;;3.85;100.00;99635.00;10422906;28;20498;-80
2023/01/10 13:15:02;;;;;;;2.07;0.80;;;6.00;99.90;;;3.86;100.00;99639.28;10445222;28;20067;-79
2023/01/10 13:20:36;;;;;;;1.33;0.73;;;6.00;99.90;;;3.87;100.00;99661.13;10442918;28;20050;-79
2023/01/10 13:25:40;;;;;;;2.60;1.10;;;6.00;99.90;;;3.88;100.00;99657.53;10457416;28;20537;-79
2023/01/10 13:30:50;;;;;;;1.10;0.70;;;6.00;99.90;;;3.88;100.00;99668.88;10433317;28;20515;-79
2023/01/10 13:36:08;;;;;;;1.45;0.68;;;6.00;99.90;;;3.88;100.00;99684.63;10442131;28;20148;-79
2023/01/10 13:46:50;;;;;;;;;;;6.10;99.90;;;3.88;100.00;99700.41;10447857;28;20061;-78
2023/01/10 13:52:28;;;;;;;12.63;4.90;;;6.10;99.90;;;3.91;100.00;99705.41;10455865;28;20036;-79
2023/01/10 13:58:18;;;;;;;6.80;2.77;;;6.10;99.90;;;3.92;100.00;99720.22;10419534;28;20065;-79
2023/01/10 14:03:56;;;;;;;4.90;1.80;;;6.10;99.90;;;3.94;100.00;99723.53;10417967;28;20145;-79
2023/01/10 14:09:03;;;;;;;3.90;2.20;;;6.20;99.90;;;3.97;100.00;99732.94;10454596;28;20065;-79
2023/01/10 14:14:23;;;;;;;2.87;1.23;;;6.10;99.90;;;3.97;100.00;99741.66;10455943;28;20084;-79
2023/01/10 14:19:31;;;;;;;1.93;1.00;;;6.20;99.90;;;4.01;100.00;99743.03;10441936;28;20057;-79
2023/01/10 14:24:44;;;;;;;4.43;0.90;;;6.20;99.90;;;4.03;100.00;99743.75;10474132;28;20521;-79
2023/01/10 14:29:58;;;;;;;1.77;0.97;;;6.20;99.90;;;4.06;100.00;99754.94;10491152;28;20068;-79
2023/01/10 14:35:06;;;;;;;2.13;1.03;;;6.30;99.90;;;4.06;100.00;99761.03;10491713;28;20154;-78
2023/01/10 14:40:31;;;;;;;3.23;1.30;;;6.30;99.90;;;4.09;100.00;99762.56;10428330;28;20146;-79
2023/01/10 14:46:02;;;;;;;2.97;1.52;;;6.30;99.90;;;4.08;100.00;99784.56;10492457;28;20072;-78
2023/01/10 14:51:27;;;;;;;2.70;1.40;;;6.30;99.90;;;4.08;100.00;99795.06;10438791;28;20554;-78
2023/01/10 14:56:50;;;;;;;2.17;1.20;;;6.30;99.90;;;4.07;100.00;99799.50;10455442;28;20186;-78
2023/01/10 15:02:21;;;;;;;3.95;1.73;;;6.30;99.90;;;4.07;100.00;99802.13;10439757;28;20144;-78
2023/01/10 15:07:28;;;;;;;3.40;1.77;;;6.30;99.90;;;4.07;100.00;99809.19;10432004;28;20439;-78
2023/01/10 15:12:33;;;;;;;2.40;1.20;;;6.20;99.90;;;4.08;100.00;99808.22;10456466;28;20108;-79
2023/01/10 15:17:36;;;;;;;2.27;1.20;;;6.20;99.90;;;4.10;100.00;99825.53;10439684;28;20150;-78
2023/01/10 15:22:54;;;;;;;2.97;1.60;;;6.30;99.90;;;4.11;100.00;99831.63;10443552;28;20062;-78
2023/01/10 15:27:58;;;;;;;2.83;1.40;;;6.30;99.90;;;4.11;100.00;99847.41;10446166;28;20503;-78
2023/01/10 15:33:08;;;;;;;3.53;1.80;;;6.30;99.90;;;4.13;100.00;99850.72;10462442;28;20396;-78
2023/01/10 15:38:22;;;;;;;4.87;2.40;;;6.30;99.90;;;4.13;100.00;99864.69;10459276;28;20485;-78
2023/01/10 15:43:35;;;;;;;8.10;3.37;;;6.30;99.90;;;4.13;100.00;99872.59;10425623;28;20061;-78
2023/01/10 15:48:42;;;;;;;10.43;3.50;;;6.40;99.90;;;4.13;100.00;99883.09;10443041;28;20061;-79
2023/01/10 15:54:04;;;;;;;4.83;2.70;;;6.30;99.90;;;4.14;100.00;99890.06;10468985;28;20290;-78
2023/01/10 15:59:44;;;;;;;11.50;4.43;;;6.30;99.90;;;4.15;100.00;99896.97;10445812;28;20499;-78
2023/01/10 16:04:51;;;;;;;4.83;2.40;;;6.30;99.90;;;4.15;100.00;99894.34;10445082;28;20116;-78
2023/01/10 16:10:16;;;;;;;4.33;2.57;;;6.30;99.90;;;4.16;100.00;99897.81;10487561;28;20057;-79
2023/01/10 16:15:24;;;;;;;4.03;2.20;;;6.30;99.90;;;4.16;100.00;99905.69;10468178;28;20070;-78
2023/01/10 16:20:40;;;;;;;4.63;2.10;;;6.30;99.90;;;4.17;100.00;99896.84;10438804;28;22049;-78
2023/01/10 16:25:51;;;;;;;3.47;1.80;;;6.30;99.90;;;4.18;100.00;99901.94;10421977;28;20141;-79
2023/01/10 16:30:54;;;;;;;3.23;1.50;;;6.30;99.90;;;4.22;100.00;99902.53;10445551;28;20057;-78
2023/01/10 16:35:59;;;;;;;4.43;1.53;;;6.40;99.90;;;4.24;100.00;99901.41;10445478;28;20065;-79
2023/01/10 16:46:25;;;;;;;3.60;1.60;;;6.40;99.90;;;4.28;100.00;99939.66;10483700;28;20065;-77
2023/01/10 16:51:31;;;;;;;5.90;2.37;;;6.40;99.90;;;4.32;100.00;99948.13;10445239;28;20072;-77
2023/01/10 16:56:34;;;;;;;8.10;2.80;;;6.50;99.90;;;4.34;100.00;99947.97;10458629;28;20095;-77
2023/01/10 17:01:45;;;;;;;6.13;2.40;;;6.50;99.90;;;4.37;100.00;99966.09;10457670;28;20131;-77
2023/01/10 17:06:49;;;;;;;7.35;2.75;;;6.60;99.90;;;4.38;100.00;99980.91;10426606;28;20090;-78
2023/01/10 17:12:05;;;;;;;3.80;1.50;;;6.60;99.90;;;4.39;100.00;99988.69;10428933;28;20426;-78
2023/01/10 17:17:10;;;;;;;4.80;1.97;;;6.60;99.90;;;4.40;100.00;99976.38;10453735;28;20065;-77
2023/01/10 17:22:14;;;;;;;4.73;1.70;;;6.60;99.90;;;4.41;100.00;99981.50;10474921;28;20081;-77
2023/01/10 17:27:17;;;;;;;3.30;1.57;;;6.60;99.90;;;4.43;100.00;99991.88;10436084;28;20057;-76
2023/01/10 17:32:20;;;;;;;4.53;1.80;;;6.60;99.90;;;4.43;100.00;99997.97;10439311;28;20057;-77
2023/01/10 17:37:23;;;;;;;2.93;1.40;;;6.60;99.90;;;4.45;100.00;100014.47;10423784;28;20068;-77
2023/01/10 17:42:26;;;;;;;4.13;0.90;;;6.70;99.90;;;4.44;100.00;100018.09;10490629;28;20096;-76
2023/01/10 17:47:29;;;;;;;3.33;1.43;;;6.70;99.90;;;4.43;100.00;100019.03;10443408;28;20088;-77
2023/01/10 17:52:32;;;;;;;3.47;1.80;;;6.60;99.90;;;4.39;100.00;100030.78;10486102;28;20510;-76
2023/01/10 17:57:37;;;;;;;5.00;1.90;;;6.60;99.90;;;4.39;100.00;100049.22;10417144;28;20143;-77
2023/01/10 18:02:41;;;;;;;3.67;1.67;;;6.70;99.90;;;4.38;100.00;100047.56;10436360;28;20419;-77
2023/01/10 18:07:43;;;;;;;4.50;1.23;;;6.60;99.90;;;4.39;100.00;100056.28;10464389;28;20436;-77
2023/01/10 18:12:46;;;;;;;4.60;1.97;;;6.60;99.90;;;4.40;100.00;100048.25;10433892;28;20067;-77
2023/01/10 18:17:50;;;;;;;5.43;1.60;;;6.60;99.90;;;4.42;100.00;100054.19;10452777;28;20057;-77
2023/01/10 18:28:14;;;;;;;4.60;2.10;;;6.70;99.90;;;4.50;99.14;100071.97;10443000;28;20061;-77
2023/01/10 18:33:18;;;;;;;3.87;1.70;;;6.70;99.90;;;4.52;98.29;100057.72;10428280;28;20062;-77
2023/01/10 18:38:21;;;;;;;5.13;1.40;;;6.80;99.90;;;4.54;97.70;100068.09;10426789;28;20207;-76
2023/01/10 18:43:24;;;;;;;2.33;1.20;;;6.80;99.90;;;4.54;97.29;100074.19;10465361;28;20061;-76
2023/01/10 18:48:27;;;;;;;2.27;1.17;;;6.80;99.90;;;4.57;96.42;100066.03;10430225;28;20161;-76
2023/01/10 18:53:31;;;;;;;3.30;1.20;;;6.80;99.90;;;4.56;96.16;100084.59;10469928;28;20144;-76
2023/01/10 18:58:38;;;;;;;3.80;1.50;;;6.80;99.90;;;4.59;95.68;100091.38;10445995;28;20531;-76
2023/01/10 19:03:43;;;;;;;4.47;1.60;;;6.80;99.90;;;4.58;95.03;100077.41;10430237;28;20065;-76
2023/01/10 19:08:46;;;;;;;2.73;1.50;;;6.90;99.90;;;4.57;95.03;100078.38;10436104;28;20065;-76
2023/01/10 19:13:54;;;;;;;2.37;1.30;;;6.80;99.90;;;4.56;95.02;100074.06;10443591;28;20076;-76
2023/01/10 19:19:04;;;;;;;2.40;1.20;;;6.80;99.90;;;4.56;94.77;100089.88;10410009;28;20112;-76
2023/01/10 19:24:21;;;;;;;2.60;1.30;;;6.80;99.90;;;4.56;94.40;100088.06;10470582;28;20531;-75
2023/01/10 19:29:24;;;;;;;2.00;1.00;;;6.80;99.90;;;4.53;94.50;100090.13;10441232;28;20521;-76
2023/01/10 19:34:27;;;;;;;1.97;1.07;;;6.80;99.90;;;4.52;94.33;100094.56;10451317;28;20139;-76
2023/01/10 19:39:30;;;;;;;2.10;0.83;;;6.80;99.90;;;4.51;93.97;100098.16;10442415;28;20156;-76
2023/01/10 19:44:34;;;;;;;1.60;0.87;;;6.80;99.90;;;4.56;93.08;100100.41;10451320;28;20127;-76
2023/01/10 19:49:37;;;;;;;1.80;0.90;;;6.80;99.90;;;4.55;93.05;100117.94;10442065;28;20061;-77
2023/01/10 19:54:40;;;;;;;2.83;1.10;;;6.80;99.90;;;4.57;92.85;100116.03;10442924;28;20141;-77
2023/01/10 19:59:44;;;;;;;2.57;1.20;;;6.80;99.90;;;4.55;92.87;100115.31;10455804;28;20054;-77
2023/01/10 20:04:47;;;;;;;1.73;0.90;;;6.80;99.90;;;4.53;92.88;100119.91;10440845;28;20090;-77
2023/01/10 20:09:51;;;;;;;2.73;1.30;;;6.80;99.90;;;4.52;92.79;100130.56;10462164;28;20049;-77
2023/01/10 20:14:54;;;;;;;3.37;1.50;;;6.80;99.90;;;4.51;92.89;100137.63;10475600;28;20093;-77
2023/01/10 20:19:59;;;;;;;3.10;1.37;;;6.80;99.90;;;4.50;92.95;100130.69;10450785;28;20058;-77
2023/01/10 20:25:02;;;;;;;3.33;1.20;;;6.80;99.90;;;4.47;92.73;100138.84;10425665;28;20058;-77
2023/01/10 20:30:07;;;;;;;3.30;1.70;;;6.80;99.90;;;4.47;92.97;100136.22;10433027;28;20111;-77
2023/01/10 20:35:10;;;;;;;3.20;1.70;;;6.80;99.90;;;4.47;92.75;100143.28;10453899;28;20102;-77
2023/01/10 20:40:13;;;;;;;2.70;1.40;;;6.70;99.90;;;4.49;92.19;100147.44;10454776;28;20454;-77
2023/01/10 20:45:16;;;;;;;2.60;1.50;;;6.70;99.90;;;4.46;92.15;100155.59;10476577;28;20506;-77
2023/01/10 20:50:19;;;;;;;2.00;1.30;;;6.70;99.90;;;4.48;91.69;100161.56;10443515;28;20061;-77
2023/01/10 20:55:22;;;;;;;2.60;1.63;;;6.70;99.90;;;4.46;91.40;100163.50;10471449;28;20064;-77
2023/01/10 21:00:25;;;;;;;2.63;1.30;;;6.70;99.90;;;4.46;91.45;100179.28;10452158;28;20057;-77
2023/01/10 21:05:28;;;;;;;3.10;1.60;;;6.70;99.90;;;4.46;91.09;100189.81;10478099;28;20057;-76
2023/01/10 21:10:31;;;;;;;2.70;1.50;;;6.70;99.90;;;4.45;90.83;100177.63;10458877;28;20065;-77
2023/01/10 21:15:42;;;;;;;3.13;1.40;;;6.70;99.90;;;4.43;90.83;100170.78;10458805;28;20068;-77
2023/01/10 21:20:46;;;;;;;2.63;1.30;;;6.70;99.90;;;4.41;90.84;100181.47;10442222;28;20061;-77
2023/01/10 21:25:50;;;;;;;4.37;1.80;;;6.70;99.90;;;4.40;90.65;100181.59;10478204;28;20156;-77
2023/01/10 21:30:53;;;;;;;2.43;1.37;;;6.70;99.90;;;4.37;90.51;100179.22;10424575;28;20095;-76
2023/01/10 21:35:57;;;;;;;4.77;1.83;;;6.60;99.90;;;4.35;90.41;100171.44;10456756;28;20469;-76
2023/01/10 21:42:32;;;;;;;2.70;1.53;;;6.60;99.90;;;4.30;90.47;100168.38;10473380;28;20068;-76
2023/01/10 21:46:43;;;;;;;5.20;1.73;;;6.60;99.90;;;4.26;90.13;100183.59;10448677;28;20482;-76
2023/01/10 21:51:46;;;;;;;3.50;1.93;;;6.50;99.90;;;4.16;90.22;100160.81;10456492;28;20092;-76
2023/01/10 21:56:49;;;;;;;3.63;2.00;;;6.40;99.90;;;4.08;90.74;100160.59;10489285;28;20149;-76
2023/01/10 22:01:52;;;;;;;3.67;1.90;;;6.30;99.90;;;3.99;90.82;100155.13;10460206;28;20478;-76
2023/01/10 22:06:56;;;;;;;5.60;1.93;;;6.20;99.90;;;3.90;91.25;100160.31;10440301;28;20112;-76
2023/01/10 22:11:59;;;;;;;3.20;2.00;;;6.20;99.90;;;3.80;91.64;100165.50;10440780;28;20068;-76